Jim Hamilton L.B. Owens Airport
KCUB : now visible

Airfield :











YOU CAN JOIN US ON...

 
LOGIN :

Register | Disclaimer

   EN    FR    IT 

 









Legend :    VFR   Marginal VFR   IFR   Intensive IFR   Very Intensive IFR
Visi :
Ceiling :
>= 8 km
>= 3000ft
5 to 8 km
1000 to 3000 ft
1500m to 5 km
500 to 1000 ft
800 to 1500m
200 to 500 ft
< 800m
< 200 ft
Symbols :   Thunderstorms  Fog  Heavy snow  Heavy precipitations  Wind > 20 kt






- Airport Elevation : 193 ft


KCUB - Jim Hamilton L.B. Owens

CURRENT METAR :
  • 211553Z AUTO VRB03KT 10SM CLR 26/19 A3026 RMK AO2 SLP246 T02560194 TSNO

EXPIRED METARs :
  • 211510Z AUTO VRB04KT 10SM SCT006 BKN033 23/20 A3027 RMK AO2 T02280200 TSNO
  • 211453Z AUTO VRB05KT 8SM OVC006 22/20 A3027 RMK AO2 SLP248 T02220200 50007 TSNO
  • 211439Z AUTO VRB05KT 7SM OVC005 21/20 A3027 RMK AO2 T02110200 TSNO
  • 211353Z AUTO VRB04KT 4SM BR OVC003 20/20 A3027 RMK AO2 SLP247 T02000200 TSNO
  • 211330Z AUTO VRB04KT 1 1/4SM BR OVC002 20/20 A3026 RMK AO2 T02000200 TSNO

TAF KCUB
Valid from the 21 at 14:00 until the 22 at 12:00 UTC


211423Z 2114/2212 03005KT 3SM BR BKN003
FM211500 04005KT 5SM BR BKN008
FM211600 04005KT 5SM HZ BKN015
FM212300 VRB03KT P6SM BKN250
FM220900 00000KT 3SM BR BKN015
KZJX FIR / North America



MET'MAP, your aeronautical weather chart ! - Copyright ORBIFLY December 2007 - Disclaimer

ORBIFLY MET'MAP TEAM :

Programming & Development : Alexandra Zaïnal
Concept & original design : Baudouin d'Aumeries
Assistance for programming : Marc-Olivier Méhu
Technical & hardware support : Manuel Goepfert

Contact : metmap@orbifly.com




SOURCES & CREDITS :

   NOAA       Earth
Advisory